Terminal Aerodrome Forecast
Issued by NWS Pueblo, CO

Home | Current Version | Previous Version | Text Only | Print | Product List | Glossary On
Versions: 1 2 3 4 5 6 7 8 9 10 11 12 13 14 15 16 17 18 19 20 21 22 23 24 25 26 27 28 29 30 31 32 33 34
000
FTUS45 KPUB 231152 CCA
TAFCOS
TAF COR
KCOS 231152Z 2312/2412 VRB05KT 5SM BR FEW010
     FM231600 16011KT P6SM FEW090 SCT200
     FM232100 15016KT P6SM SCT090 SCT200
     FM240300 14006KT P6SM SCT020 OVC080
     FM240500 05008KT 4SM BR BKN020 OVC090
     FM240700 11006KT 2SM -SN BKN002 OVC020=

USA.gov is the U.S. government's official web portal to all federal, state and local government web resources and services.